Time;durP1;ratioP1;P1;durP2;ratioP2;P2;SDS_P1;SDS_P2;PMS_P1;PMS_P2;Temp;Humidity;BMP_temperature;BMP_pressure;BME280_temperature;BME280_humidity;BME280_pressure;Samples;Min_cycle;Max_cycle;Signal;HPM_P1;HPM_P2
2022/07/12 00:00:25;;;;;;;;;;;;;;;14.23;67.74;100038.81;4975252;28;20017;-73
2022/07/12 00:02:54;;;;;;;;;;;;;;;14.17;67.70;100028.63;4975264;28;20391;-71
2022/07/12 00:05:23;;;;;;;;;;;;;;;14.19;67.97;100032.03;4975200;28;19921;-72
2022/07/12 00:07:52;;;;;;;;;;;;;;;14.12;67.86;100035.53;4975110;28;19922;-72
2022/07/12 00:10:21;;;;;;;;;;;;;;;14.12;67.79;100035.53;4975120;28;19988;-72
2022/07/12 00:12:49;;;;;;;;;;;;;;;14.13;67.98;100036.38;4975276;28;20280;-71
2022/07/12 00:15:19;;;;;;;;;;;;;;;14.00;68.17;100040.78;4974627;28;19947;-72
2022/07/12 00:17:48;;;;;;;;;;;;;;;14.01;67.97;100037.34;4975063;28;19973;-71
2022/07/12 00:20:17;;;;;;;;;;;;;;;13.92;68.40;100037.41;4975070;28;19937;-72
2022/07/12 00:22:46;;;;;;;;;;;;;;;13.94;68.40;100039.09;4974991;28;19922;-74
2022/07/12 00:25:14;;;;;;;;;;;;;;;14.01;68.09;100037.34;4974940;28;19976;-71
2022/07/12 00:27:43;;;;;;;;;;;;;;;13.88;68.62;100040.88;4974955;28;19973;-72
2022/07/12 00:30:12;;;;;;;;;;;;;;;13.83;69.01;100032.34;4957769;28;19926;-73
2022/07/12 00:32:40;;;;;;;;;;;;;;;13.85;68.94;100033.19;4974828;28;20419;-71
2022/07/12 00:35:11;;;;;;;;;;;;;;;13.86;68.50;100037.47;4974871;28;19973;-71
2022/07/12 00:37:39;;;;;;;;;;;;;;;13.84;68.46;100045.19;4974933;28;19969;-72
2022/07/12 00:40:08;;;;;;;;;;;;;;;13.73;68.91;100056.38;4974878;28;19953;-71
2022/07/12 00:42:38;;;;;;;;;;;;;;;13.66;69.06;100049.59;4957675;28;19928;-72
2022/07/12 00:45:07;;;;;;;;;;;;;;;13.71;69.49;100048.72;4974865;28;19922;-73
2022/07/12 00:47:37;;;;;;;;;;;;;;;13.77;69.49;100052.94;4975089;28;19922;-73
2022/07/12 00:50:07;;;;;;;;;;;;;;;13.69;69.74;100045.31;4974846;28;19922;-71
2022/07/12 00:52:37;;;;;;;;;;;;;;;13.75;69.39;100041.84;4974682;28;19958;-71
2022/07/12 00:55:07;;;;;;;;;;;;;;;13.76;69.31;100048.66;4975391;28;19922;-73
2022/07/12 00:57:36;;;;;;;;;;;;;;;13.77;69.56;100053.78;4978601;28;19922;-71
2022/07/12 01:00:06;;;;;;;;;;;;;;;13.76;68.94;100046.09;4978474;28;19949;-71
2022/07/12 01:02:35;;;;;;;;;;;;;;;13.84;68.93;100059.72;4978302;28;20292;-72
2022/07/12 01:05:05;;;;;;;;;;;;;;;13.81;69.28;100055.47;4978589;28;19922;-72
2022/07/12 01:07:34;;;;;;;;;;;;;;;13.88;68.99;100067.38;4978263;28;19922;-71
2022/07/12 01:10:05;;;;;;;;;;;;;;;13.84;68.56;100059.72;4978179;28;19926;-72
2022/07/12 01:12:33;;;;;;;;;;;;;;;13.80;68.57;100058.03;4978384;28;20372;-72
2022/07/12 01:15:02;;;;;;;;;;;;;;;13.84;68.34;100054.59;4978061;28;19977;-71
2022/07/12 01:17:30;;;;;;;;;;;;;;;13.97;68.17;100058.75;4978395;28;19945;-72
2022/07/12 01:19:59;;;;;;;;;;;;;;;14.05;67.96;100055.28;4978034;28;19922;-72
2022/07/12 01:22:32;;;;;;;;;;;;;;;14.10;67.69;100043.25;4978008;28;20021;-73
2022/07/12 01:25:02;;;;;;;;;;;;;;;14.14;67.56;100049.19;4978218;28;19922;-72
2022/07/12 01:27:31;;;;;;;;;;;;;;;14.12;67.09;100040.66;4977974;28;20320;-72
2022/07/12 01:30:02;;;;;;;;;;;;;;;14.06;67.67;100040.69;4977854;28;19921;-71
2022/07/12 01:32:31;;;;;;;;;;;;;;;13.95;67.68;100034.81;4977805;28;19922;-71
2022/07/12 01:35:02;;;;;;;;;;;;;;;14.01;67.94;100048.44;4977728;28;19922;-72
2022/07/12 01:37:32;;;;;;;;;;;;;;;14.05;67.72;100044.16;4978014;28;20028;-71
2022/07/12 01:40:02;;;;;;;;;;;;;;;13.95;67.84;100032.25;4977736;28;19929;-72
2022/07/12 01:42:31;;;;;;;;;;;;;;;13.92;67.78;100034.84;4977716;28;20281;-73
2022/07/12 01:45:00;;;;;;;;;;;;;;;13.82;67.98;100036.63;4977537;28;19926;-71
2022/07/12 01:47:30;;;;;;;;;;;;;;;13.74;67.91;100030.72;4977792;28;19925;-72
2022/07/12 01:49:58;;;;;;;;;;;;;;;13.66;68.23;100040.19;4977478;28;19922;-73
2022/07/12 01:52:27;;;;;;;;;;;;;;;13.69;68.23;100034.19;4977618;28;19977;-72
2022/07/12 01:54:56;;;;;;;;;;;;;;;13.58;68.50;100020.59;4977300;28;19925;-71
2022/07/12 01:57:26;;;;;;;;;;;;;;;13.48;68.51;100026.66;4977343;28;19953;-73
2022/07/12 01:59:54;;;;;;;;;;;;;;;13.50;68.87;100028.34;4977376;28;19957;-72
2022/07/12 02:02:24;;;;;;;;;;;;;;;13.48;69.04;100042.03;4977264;28;19922;-73
2022/07/12 02:04:54;;;;;;;;;;;;;;;13.43;68.91;100037.81;4977570;28;19922;-71
2022/07/12 02:07:24;;;;;;;;;;;;;;;13.42;68.87;100041.22;4975965;28;19969;-72
2022/07/12 02:09:53;;;;;;;;;;;;;;;13.24;69.45;100037.91;4977776;28;19930;-72
2022/07/12 02:12:21;;;;;;;;;;;;;;;13.15;69.58;100041.38;4977289;28;19926;-72
2022/07/12 02:14:51;;;;;;;;;;;;;;;13.24;69.53;100036.22;4959738;28;19922;-71
2022/07/12 02:17:20;;;;;;;;;;;;;;;13.21;69.54;100036.22;4977152;28;19929;-72
2022/07/12 02:19:49;;;;;;;;;;;;;;;13.24;69.84;100036.22;4977014;28;19922;-72
2022/07/12 02:22:17;;;;;;;;;;;;;;;13.17;69.55;100031.13;4977251;28;19961;-72
2022/07/12 02:24:45;;;;;;;;;;;;;;;13.13;69.96;100031.97;4977107;28;20319;-73
2022/07/12 02:27:14;;;;;;;;;;;;;;;13.17;70.43;100039.66;4977168;28;19925;-72
2022/07/12 02:29:42;;;;;;;;;;;;;;;13.28;70.43;100037.88;4976767;28;19922;-73
2022/07/12 02:32:13;;;;;;;;;;;;;;;13.36;70.05;100036.09;4976980;28;19928;-71
2022/07/12 02:34:42;;;;;;;;;;;;;;;13.43;70.34;100036.94;4976694;28;19926;-71
2022/07/12 02:37:11;;;;;;;;;;;;;;;13.40;69.78;100032.69;4976588;28;20012;-71
2022/07/12 02:39:39;;;;;;;;;;;;;;;13.37;69.75;100027.56;4976576;28;20036;-72
2022/07/12 02:42:06;;;;;;;;;;;;;;;13.30;70.30;100036.16;4976561;28;19977;-73
2022/07/12 02:44:35;;;;;;;;;;;;;;;13.20;70.77;100039.63;4976500;28;19964;-72
2022/07/12 02:47:04;;;;;;;;;;;;;;;13.23;70.94;100042.19;4976709;28;19925;-71
2022/07/12 02:49:34;;;;;;;;;;;;;;;13.25;70.67;100048.16;4976747;28;19945;-72
2022/07/12 02:52:03;;;;;;;;;;;;;;;13.25;70.69;100045.59;4976513;28;19922;-72
2022/07/12 02:54:31;;;;;;;;;;;;;;;13.31;70.49;100048.13;4976189;28;19922;-71
2022/07/12 02:56:59;;;;;;;;;;;;;;;13.34;70.43;100052.41;4976194;28;20339;-73
2022/07/12 02:59:28;;;;;;;;;;;;;;;13.41;70.32;100051.50;4976168;28;20012;-72
2022/07/12 03:01:57;;;;;;;;;;;;;;;13.49;70.74;100047.16;4976104;28;19922;-72
2022/07/12 03:04:26;;;;;;;;;;;;;;;13.54;70.49;100049.69;4975931;28;20001;-73
2022/07/12 03:06:56;;;;;;;;;;;;;;;13.66;70.46;100045.31;4976005;28;19929;-72
2022/07/12 03:09:24;;;;;;;;;;;;;;;13.70;70.26;100047.00;4976038;28;19961;-72
2022/07/12 03:11:53;;;;;;;;;;;;;;;13.70;70.98;100038.47;4975975;28;19922;-72
2022/07/12 03:14:21;;;;;;;;;;;;;;;13.62;70.61;100042.78;4976170;28;19984;-72
2022/07/12 03:16:50;;;;;;;;;;;;;;;13.61;70.25;100053.91;4975669;28;20405;-71
2022/07/12 03:19:19;;;;;;;;;;;;;;;13.55;70.25;100051.38;4975814;28;20032;-71
2022/07/12 03:21:47;;;;;;;;;;;;;;;13.52;70.44;100056.53;4975761;28;19922;-72
2022/07/12 03:24:17;;;;;;;;;;;;;;;13.49;70.23;100051.41;4975842;28;19922;-71
2022/07/12 03:26:45;;;;;;;;;;;;;;;13.46;70.41;100051.47;4975932;28;19977;-71
2022/07/12 03:29:15;;;;;;;;;;;;;;;13.48;70.07;100054.88;4975972;28;20411;-72
2022/07/12 03:31:44;;;;;;;;;;;;;;;13.52;70.40;100056.53;4975638;28;19922;-71
2022/07/12 03:34:12;;;;;;;;;;;;;;;13.58;70.03;100056.50;4975473;28;19922;-72
2022/07/12 03:36:41;;;;;;;;;;;;;;;13.60;70.23;100057.34;4975884;28;19922;-72
2022/07/12 03:39:09;;;;;;;;;;;;;;;13.69;69.91;100064.97;4975804;28;19969;-73
2022/07/12 03:41:39;;;;;;;;;;;;;;;13.87;69.84;100049.41;4975732;28;20463;-72
2022/07/12 03:44:07;;;;;;;;;;;;;;;14.03;69.46;100056.16;4975465;28;19929;-72
2022/07/12 03:46:36;;;;;;;;;;;;;;;14.21;68.76;100055.97;4975382;28;19922;-71
2022/07/12 03:49:05;;;;;;;;;;;;;;;14.38;68.66;100055.84;4975500;28;19926;-72
2022/07/12 03:51:33;;;;;;;;;;;;;;;14.49;68.17;100060.00;4975340;28;19969;-73
2022/07/12 03:54:02;;;;;;;;;;;;;;;14.58;68.02;100062.47;4975505;28;20353;-73
2022/07/12 03:59:10;;;;;;;;;;;;;;;14.57;68.61;100058.19;4975462;28;20001;-73
2022/07/12 04:01:39;;;;;;;;;;;;;;;14.60;68.40;100055.59;4975189;28;19929;-72
2022/07/12 04:04:07;;;;;;;;;;;;;;;14.68;68.53;100058.91;4975439;28;20287;-72
2022/07/12 04:06:36;;;;;;;;;;;;;;;14.83;67.83;100065.59;4975171;28;19922;-72
2022/07/12 04:09:05;;;;;;;;;;;;;;;14.93;67.05;100064.63;4975069;28;19933;-72
2022/07/12 04:11:34;;;;;;;;;;;;;;;15.04;66.83;100057.66;4975408;28;20297;-73
2022/07/12 04:14:03;;;;;;;;;;;;;;;15.13;66.64;100061.81;4975132;28;19929;-74
2022/07/12 04:16:33;;;;;;;;;;;;;;;15.11;66.81;100063.56;4974704;28;19929;-72
2022/07/12 04:19:01;;;;;;;;;;;;;;;15.04;67.22;100067.09;4975015;28;19922;-73
2022/07/12 04:21:30;;;;;;;;;;;;;;;14.95;67.57;100067.22;4975034;28;20375;-72
2022/07/12 04:23:58;;;;;;;;;;;;;;;14.89;67.95;100072.41;4975035;28;19922;-71
2022/07/12 04:26:27;;;;;;;;;;;;;;;14.89;67.79;100072.41;4975262;28;19928;-73
2022/07/12 04:28:55;;;;;;;;;;;;;;;14.94;67.87;100065.50;4974937;28;19984;-72
2022/07/12 04:31:27;;;;;;;;;;;;;;;15.21;67.86;100065.16;4977137;28;19968;-72
2022/07/12 04:33:57;;;;;;;;;;;;;;;15.46;67.42;100061.38;4979116;28;20352;-72
2022/07/12 04:36:25;;;;;;;;;;;;;;;15.60;66.38;100064.59;4978845;28;19930;-73
2022/07/12 04:38:54;;;;;;;;;;;;;;;15.76;65.93;100063.50;4979041;28;19922;-74
2022/07/12 04:41:22;;;;;;;;;;;;;;;15.76;65.55;100058.38;4978719;28;19922;-71
2022/07/12 04:43:51;;;;;;;;;;;;;;;15.88;65.00;100055.56;4979322;28;19922;-72
2022/07/12 04:46:19;;;;;;;;;;;;;;;15.89;64.69;100052.13;4979046;28;20351;-73
2022/07/12 04:48:48;;;;;;;;;;;;;;;15.95;64.64;100046.91;4978622;28;19922;-71
2022/07/12 04:51:18;;;;;;;;;;;;;;;16.13;64.30;100048.28;4978788;28;20017;-72
2022/07/12 04:53:46;;;;;;;;;;;;;;;16.33;64.11;100042.78;4978483;28;19922;-73
2022/07/12 04:56:15;;;;;;;;;;;;;;;16.46;63.53;100039.94;4978453;28;19922;-75
2022/07/12 04:58:43;;;;;;;;;;;;;;;16.74;63.15;100045.47;4978396;28;19922;-72
2022/07/12 05:01:12;;;;;;;;;;;;;;;17.07;62.60;100043.94;4978644;28;20286;-72
2022/07/12 05:03:41;;;;;;;;;;;;;;;17.28;61.54;100043.44;4978358;28;19929;-72
2022/07/12 05:06:09;;;;;;;;;;;;;;;17.50;60.81;100043.81;4978297;28;19976;-73
2022/07/12 05:08:39;;;;;;;;;;;;;;;17.73;60.24;100046.75;4960997;28;20434;-73
2022/07/12 05:11:09;;;;;;;;;;;;;;;17.86;59.60;100042.97;4978448;28;20269;-72
2022/07/12 05:13:37;;;;;;;;;;;;;;;18.01;59.16;100042.63;4978087;28;19945;-73
2022/07/12 05:16:07;;;;;;;;;;;;;;;18.11;58.80;100033.75;4977948;28;19969;-73
2022/07/12 05:18:35;;;;;;;;;;;;;;;18.15;58.43;100042.25;4978098;28;20447;-73
2022/07/12 05:21:04;;;;;;;;;;;;;;;18.31;58.36;100052.16;4977980;28;19921;-73
2022/07/12 05:23:33;;;;;;;;;;;;;;;18.45;58.08;100050.03;4978009;28;19922;-74
2022/07/12 05:26:03;;;;;;;;;;;;;;;18.48;57.72;100049.16;4978012;28;20372;-75
2022/07/12 05:28:32;;;;;;;;;;;;;;;18.39;57.60;100059.72;4977914;28;20009;-73
2022/07/12 05:31:00;;;;;;;;;;;;;;;18.44;57.37;100053.53;4977830;28;19926;-72
2022/07/12 05:33:29;;;;;;;;;;;;;;;18.53;57.02;100058.50;4978092;28;19981;-72
2022/07/12 05:35:57;;;;;;;;;;;;;;;18.57;56.87;100054.91;4978019;28;19922;-73
2022/07/12 05:38:25;;;;;;;;;;;;;;;18.68;56.83;100054.66;4977744;28;19921;-74
2022/07/12 05:40:54;;;;;;;;;;;;;;;18.77;56.69;100050.94;4978073;28;20004;-73
2022/07/12 05:43:24;;;;;;;;;;;;;;;18.88;56.12;100059.25;4977737;28;19965;-73
2022/07/12 05:45:52;;;;;;;;;;;;;;;18.85;55.65;100055.03;4978323;28;19926;-72
2022/07/12 05:48:21;;;;;;;;;;;;;;;18.72;56.08;100048.47;4960468;28;20406;-73
2022/07/12 05:50:49;;;;;;;;;;;;;;;18.79;56.13;100054.34;4978103;28;19922;-72
2022/07/12 05:53:23;;;;;;;;;;;;;;;18.93;55.99;100052.22;4977685;28;20299;-73
2022/07/12 05:55:52;;;;;;;;;;;;;;;19.02;55.75;100051.94;4977409;28;19968;-71
2022/07/12 05:58:21;;;;;;;;;;;;;;;19.12;55.55;100048.22;4977393;28;19922;-74
2022/07/12 06:00:51;;;;;;;;;;;;;;;19.23;55.08;100046.13;4960135;28;20435;-73
2022/07/12 06:03:19;;;;;;;;;;;;;;;19.37;55.00;100049.19;4977548;28;19926;-74
2022/07/12 06:05:48;;;;;;;;;;;;;;;19.50;54.77;100055.69;4977196;28;20403;-72
2022/07/12 06:08:16;;;;;;;;;;;;;;;19.54;54.15;100052.09;4977309;28;19926;-72
2022/07/12 06:10:45;;;;;;;;;;;;;;;19.66;54.01;100048.28;4977378;28;20456;-73
2022/07/12 06:13:13;;;;;;;;;;;;;;;19.79;53.78;100041.81;4977986;28;19922;-73
2022/07/12 06:15:42;;;;;;;;;;;;;;;19.84;53.31;100050.28;4976817;28;20021;-74
2022/07/12 06:18:12;;;;;;;;;;;;;;;19.87;53.39;100050.16;4977080;28;19925;-75
2022/07/12 06:20:40;;;;;;;;;;;;;;;19.97;53.27;100046.38;4977317;28;19980;-75
2022/07/12 06:23:09;;;;;;;;;;;;;;;20.20;53.10;100038.72;4977164;28;20375;-73
2022/07/12 06:25:37;;;;;;;;;;;;;;;20.20;52.48;100045.63;4977402;28;19926;-72
2022/07/12 06:28:11;;;;;;;;;;;;;;;20.21;52.37;100040.38;4977212;28;19929;-74
2022/07/12 06:30:40;;;;;;;;;;;;;;;20.18;52.30;100037.88;4976744;28;19929;-74
2022/07/12 06:33:09;;;;;;;;;;;;;;;20.05;52.34;100039.22;4976662;28;20368;-74
2022/07/12 06:35:39;;;;;;;;;;;;;;;20.02;52.26;100040.16;4976605;28;19980;-73
2022/07/12 06:38:07;;;;;;;;;;;;;;;20.27;52.44;100035.03;4976797;28;20025;-72
2022/07/12 06:40:35;;;;;;;;;;;;;;;20.50;51.85;100026.44;4976536;28;19922;-72
2022/07/12 06:43:09;;;;;;;;;;;;;;;20.67;51.15;100031.88;4976580;28;19929;-73
2022/07/12 06:45:37;;;;;;;;;;;;;;;20.85;50.84;100038.16;4976491;28;19930;-72
2022/07/12 06:48:06;;;;;;;;;;;;;;;20.98;50.50;100039.38;4976442;28;19922;-71
2022/07/12 06:50:35;;;;;;;;;;;;;;;21.11;50.23;100040.66;4976449;28;19922;-74
2022/07/12 06:53:05;;;;;;;;;;;;;;;21.15;49.88;100035.28;4975763;28;19922;-74
2022/07/12 06:55:33;;;;;;;;;;;;;;;21.15;49.47;100032.69;4976256;28;19926;-74
2022/07/12 06:58:02;;;;;;;;;;;;;;;21.15;49.09;100027.50;4969634;28;19926;-72
2022/07/12 07:00:30;;;;;;;;;;;;;;;21.18;49.20;100029.97;4970178;28;19922;-72
2022/07/12 07:02:59;;;;;;;;;;;;;;;21.27;49.32;100037.41;4975764;28;20024;-72
2022/07/12 07:05:27;;;;;;;;;;;;;;;21.24;49.16;100032.31;4975954;28;20443;-74
2022/07/12 07:07:56;;;;;;;;;;;;;;;21.34;49.24;100031.06;4976386;28;19922;-73
2022/07/12 07:10:26;;;;;;;;;;;;;;;21.48;48.73;100027.06;4975694;28;19921;-72
2022/07/12 07:12:54;;;;;;;;;;;;;;;21.58;48.50;100033.59;4975949;28;20393;-75
2022/07/12 07:15:23;;;;;;;;;;;;;;;21.68;48.19;100032.31;4975782;28;19922;-72
2022/07/12 07:17:51;;;;;;;;;;;;;;;21.80;47.93;100037.03;4975629;28;19969;-70
2022/07/12 07:20:20;;;;;;;;;;;;;;;21.93;47.88;100028.69;4976054;28;19922;-71
2022/07/12 07:22:49;;;;;;;;;;;;;;;21.99;47.67;100019.78;4976077;28;19928;-70
2022/07/12 07:25:18;;;;;;;;;;;;;;;22.11;47.61;100027.09;4975403;28;20021;-69
2022/07/12 07:27:48;;;;;;;;;;;;;;;22.27;47.17;100028.09;4975967;28;19929;-70
2022/07/12 07:32:54;;;;;;;;;;;;;;;22.59;46.22;100027.56;4975601;28;19929;-70
2022/07/12 07:35:24;;;;;;;;;;;;;;;22.67;45.79;100022.88;4975614;28;20423;-70
2022/07/12 07:37:52;;;;;;;;;;;;;;;22.74;45.49;100027.81;4975747;28;20277;-71
2022/07/12 07:40:21;;;;;;;;;;;;;;;22.86;45.38;100022.91;4958513;28;19922;-69
2022/07/12 07:42:51;;;;;;;;;;;;;;;23.00;46.05;100030.09;4975812;28;20354;-69
2022/07/12 07:45:20;;;;;;;;;;;;;;;23.19;45.60;100030.94;4970684;28;20373;-70
2022/07/12 07:47:49;;;;;;;;;;;;;;;23.29;44.20;100022.63;4973676;28;20311;-69
2022/07/12 07:50:38;;;;;;;;;;;;;;;23.31;44.15;100020.78;4975267;28;20017;-68
2022/07/12 07:53:06;;;;;;;;;;;;;;;23.43;44.67;100019.38;4975355;28;19922;-71
2022/07/12 07:55:35;;;;;;;;;;;;;;;23.61;43.98;100023.69;4973902;28;19922;-68
2022/07/12 07:58:05;;;;;;;;;;;;;;;23.66;42.31;100020.91;4975473;28;20430;-70
2022/07/12 08:00:33;;;;;;;;;;;;;;;23.54;41.34;100006.66;4957425;28;19925;-69
2022/07/12 08:03:02;;;;;;;;;;;;;;;23.31;42.00;100022.53;4975163;28;19969;-70
2022/07/12 08:05:30;;;;;;;;;;;;;;;23.10;43.30;100026.16;4975101;28;19922;-70
2022/07/12 08:07:59;;;;;;;;;;;;;;;23.05;43.67;100022.91;4969172;28;19981;-69
2022/07/12 08:10:28;;;;;;;;;;;;;;;23.15;44.22;100018.97;4956331;28;19933;-70
2022/07/12 08:12:57;;;;;;;;;;;;;;;23.30;43.48;100024.28;4956107;29;20285;-69
2022/07/12 08:15:27;;;;;;;;;;;;;;;23.55;41.91;100012.75;4955990;29;19922;-69
2022/07/12 08:17:55;;;;;;;;;;;;;;;23.74;40.60;100018.75;4955613;29;19953;-72
2022/07/12 08:20:25;;;;;;;;;;;;;;;23.74;38.47;100019.59;4958913;28;20253;-69
2022/07/12 08:23:14;;;;;;;;;;;;;;;23.66;38.16;100021.72;4975223;28;20388;-72
2022/07/12 08:25:42;;;;;;;;;;;;;;;23.49;38.59;100024.28;4974985;28;19922;-68
2022/07/12 08:28:10;;;;;;;;;;;;;;;23.46;39.54;100019.25;4975241;28;20371;-69
2022/07/12 08:30:40;;;;;;;;;;;;;;;23.32;39.15;100016.44;4975059;28;19992;-70
2022/07/12 08:33:14;;;;;;;;;;;;;;;23.09;38.96;100014.03;4974947;28;19969;-69
2022/07/12 08:35:42;;;;;;;;;;;;;;;23.05;40.36;100020.31;4974846;28;19929;-71
2022/07/12 08:38:11;;;;;;;;;;;;;;;23.03;40.49;100024.75;4974860;28;19922;-68
2022/07/12 08:40:41;;;;;;;;;;;;;;;23.02;40.86;100010.03;4975192;28;20016;-69
2022/07/12 08:43:09;;;;;;;;;;;;;;;23.00;41.06;100019.69;4974873;28;20444;-69
2022/07/12 08:45:37;;;;;;;;;;;;;;;22.92;41.31;100012.22;4974772;28;19973;-70
2022/07/12 08:48:08;;;;;;;;;;;;;;;22.95;41.33;100024.25;4975404;28;20319;-71
2022/07/12 08:50:36;;;;;;;;;;;;;;;22.94;41.55;100022.56;4974757;28;20368;-69
2022/07/12 08:53:13;;;;;;;;;;;;;;;22.94;41.12;100014.78;4974767;28;19926;-68
2022/07/12 08:55:41;;;;;;;;;;;;;;;23.23;41.61;100014.22;4973430;28;19922;-71
2022/07/12 08:58:16;;;;;;;;;;;;;;;23.58;41.07;100018.66;4974426;28;19972;-69
2022/07/12 09:00:44;;;;;;;;;;;;;;;23.93;38.75;100014.31;4968679;28;19969;-69
2022/07/12 09:03:19;;;;;;;;;;;;;;;24.23;36.90;100012.81;4956982;28;19978;-69
2022/07/12 09:05:48;;;;;;;;;;;;;;;24.39;35.96;100008.47;4955725;29;20345;-69
2022/07/12 09:08:17;;;;;;;;;;;;;;;24.50;35.41;100010.50;4955331;29;19923;-70
2022/07/12 09:10:56;;;;;;;;;;;;;;;24.57;34.94;100017.13;4955346;29;19930;-70
2022/07/12 09:13:40;;;;;;;;;;;;;;;24.61;34.57;100016.03;4956101;28;19930;-70
2022/07/12 09:16:15;;;;;;;;;;;;;;;24.70;34.29;100018.16;4963959;28;19976;-70
2022/07/12 09:18:45;;;;;;;;;;;;;;;24.79;34.37;100017.69;4963072;28;20016;-69
2022/07/12 09:21:22;;;;;;;;;;;;;;;24.79;34.24;100017.69;4978501;28;20335;-70
2022/07/12 09:23:54;;;;;;;;;;;;;;;24.71;34.01;100019.84;4977133;28;19921;-71
2022/07/12 09:26:23;;;;;;;;;;;;;;;24.76;34.40;100020.44;4969040;28;19945;-71
2022/07/12 09:28:52;;;;;;;;;;;;;;;24.59;34.39;100017.88;4966430;28;19922;-71
2022/07/12 09:31:21;;;;;;;;;;;;;;;24.41;34.74;100021.44;4959080;29;20296;-69
2022/07/12 09:36:40;;;;;;;;;;;;;;;24.40;35.09;100019.75;4968301;28;19968;-72
2022/07/12 09:39:09;;;;;;;;;;;;;;;24.37;35.25;100025.97;4977609;28;19922;-69
2022/07/12 09:41:37;;;;;;;;;;;;;;;24.42;35.44;100023.13;4977873;28;19983;-69
2022/07/12 09:44:06;;;;;;;;;;;;;;;24.55;35.75;100029.38;4960651;28;19962;-70
2022/07/12 09:46:34;;;;;;;;;;;;;;;24.61;36.04;100029.06;4977912;28;19944;-69
2022/07/12 09:49:03;;;;;;;;;;;;;;;24.63;35.59;100022.00;4977686;28;20418;-70
2022/07/12 09:51:33;;;;;;;;;;;;;;;24.67;35.91;100023.50;4977749;28;20363;-68
2022/07/12 09:54:05;;;;;;;;;;;;;;;24.90;36.53;100015.34;4977788;28;19961;-70
2022/07/12 09:56:36;;;;;;;;;;;;;;;24.88;35.53;100019.81;4977682;28;20016;-67
2022/07/12 09:59:10;;;;;;;;;;;;;;;24.69;34.63;100026.88;4977396;28;20000;-70
2022/07/12 10:01:39;;;;;;;;;;;;;;;24.53;34.52;100023.41;4977685;28;20397;-69
2022/07/12 10:04:09;;;;;;;;;;;;;;;24.42;34.96;100028.34;4977569;28;19922;-70
2022/07/12 10:06:37;;;;;;;;;;;;;;;24.31;35.65;100021.06;4977174;28;19972;-71
2022/07/12 10:09:09;;;;;;;;;;;;;;;24.25;35.95;100015.31;4975238;28;20018;-72
2022/07/12 10:11:38;;;;;;;;;;;;;;;24.16;35.21;100002.75;4967004;28;19969;-70
2022/07/12 10:14:27;;;;;;;;;;;;;;;24.39;35.00;100007.63;4958086;29;20013;-70
2022/07/12 10:16:57;;;;;;;;;;;;;;;24.75;36.22;100010.91;4957515;29;20013;-70
2022/07/12 10:19:26;;;;;;;;;;;;;;;25.05;35.79;100014.50;4957665;29;19923;-70
2022/07/12 10:21:55;;;;;;;;;;;;;;;25.38;34.93;100001.34;4957827;29;20365;-70
2022/07/12 10:24:38;;;;;;;;;;;;;;;25.52;34.70;100001.44;4957851;29;20332;-68
2022/07/12 10:27:23;;;;;;;;;;;;;;;25.64;33.23;99998.13;4957104;28;20494;-69
2022/07/12 10:29:53;;;;;;;;;;;;;;;25.79;32.78;99997.25;4956443;28;19969;-70
2022/07/12 10:32:25;;;;;;;;;;;;;;;25.87;32.25;99983.69;4957829;29;20016;-70
2022/07/12 10:34:58;;;;;;;;;;;;;;;26.14;32.44;99992.59;4961896;28;20008;-68
2022/07/12 10:37:26;;;;;;;;;;;;;;;26.31;31.66;99995.03;4957122;29;19922;-69
2022/07/12 10:40:12;;;;;;;;;;;;;;;26.35;31.42;99993.91;4957614;29;20044;-70
2022/07/12 10:42:40;;;;;;;;;;;;;;;26.43;30.67;99998.69;4957284;29;19922;-67
2022/07/12 10:45:13;;;;;;;;;;;;;;;26.46;30.88;99996.75;4957832;29;20369;-69
2022/07/12 10:47:52;;;;;;;;;;;;;;;26.55;32.09;99995.31;4957156;29;19926;-68
2022/07/12 10:50:41;;;;;;;;;;;;;;;26.28;31.04;99995.22;4957052;29;19927;-70
2022/07/12 10:53:21;;;;;;;;;;;;;;;25.89;31.40;99997.56;4956882;29;19953;-68
2022/07/12 10:56:08;;;;;;;;;;;;;;;25.59;31.73;100005.41;4957045;29;20281;-69
2022/07/12 10:58:38;;;;;;;;;;;;;;;25.35;31.57;99990.22;4957402;29;20066;-70
2022/07/12 11:01:10;;;;;;;;;;;;;;;25.09;31.97;100010.81;4957163;29;19988;-67
2022/07/12 11:03:40;;;;;;;;;;;;;;;24.92;32.36;100008.28;4957431;29;19922;-69
2022/07/12 11:06:09;;;;;;;;;;;;;;;24.77;32.51;100014.31;4957748;29;20353;-69
2022/07/12 11:08:48;;;;;;;;;;;;;;;24.53;33.35;100026.00;4956738;29;19922;-69
2022/07/12 11:11:17;;;;;;;;;;;;;;;23.93;35.82;100015.16;4956787;29;19977;-67
2022/07/12 11:13:47;;;;;;;;;;;;;;;23.58;37.11;100016.06;4966033;28;19969;-69
2022/07/12 11:16:17;;;;;;;;;;;;;;;23.40;37.69;100027.34;4957048;28;20377;-72
2022/07/12 11:18:46;;;;;;;;;;;;;;;23.29;38.07;100022.63;4956310;29;19922;-69
2022/07/12 11:21:15;;;;;;;;;;;;;;;23.04;38.06;100026.44;4956449;29;19930;-66
2022/07/12 11:23:44;;;;;;;;;;;;;;;22.92;38.27;100030.44;4968340;28;19921;-68
2022/07/12 11:26:13;;;;;;;;;;;;;;;22.81;37.72;100024.03;4975700;28;19922;-66
2022/07/12 11:28:42;;;;;;;;;;;;;;;22.71;37.37;100027.97;4975745;28;19977;-68
2022/07/12 11:31:11;;;;;;;;;;;;;;;22.73;37.35;100026.13;4975948;28;19925;-66
2022/07/12 11:33:42;;;;;;;;;;;;;;;22.75;37.15;100025.16;4975618;28;20368;-70
2022/07/12 11:36:12;;;;;;;;;;;;;;;22.75;37.07;100021.72;4968173;28;19968;-68
2022/07/12 11:38:43;;;;;;;;;;;;;;;22.74;36.90;100018.28;4956241;29;19923;-66
2022/07/12 11:41:13;;;;;;;;;;;;;;;22.91;36.76;100010.53;4955989;28;19926;-70
2022/07/12 11:43:41;;;;;;;;;;;;;;;23.13;36.85;100005.19;4973800;28;19929;-68
2022/07/12 11:46:11;;;;;;;;;;;;;;;23.54;36.87;99996.25;4975717;28;19922;-68
2022/07/12 11:48:42;;;;;;;;;;;;;;;23.85;36.59;99986.00;4975455;28;19953;-66
2022/07/12 11:51:12;;;;;;;;;;;;;;;24.28;36.56;99981.25;4975411;28;19925;-67
2022/07/12 11:53:41;;;;;;;;;;;;;;;24.45;35.74;99976.81;4975640;28;19953;-69
2022/07/12 11:56:10;;;;;;;;;;;;;;;24.57;35.41;99976.16;4975498;28;19926;-67
2022/07/12 11:58:38;;;;;;;;;;;;;;;24.64;34.86;99961.03;4975270;28;19922;-67
2022/07/12 12:01:11;;;;;;;;;;;;;;;24.70;34.94;99965.91;4975203;28;19953;-66
2022/07/12 12:03:46;;;;;;;;;;;;;;;25.03;35.34;99964.09;4975480;28;19946;-68
2022/07/12 12:06:15;;;;;;;;;;;;;;;25.36;34.03;99965.78;4974013;28;19949;-68
2022/07/12 12:08:44;;;;;;;;;;;;;;;25.70;34.55;99960.31;4957963;28;19922;-67
2022/07/12 12:11:13;;;;;;;;;;;;;;;26.05;34.21;99964.31;4972863;28;19926;-66
2022/07/12 12:13:42;;;;;;;;;;;;;;;26.21;33.41;99967.72;4973048;28;19925;-66
2022/07/12 12:16:11;;;;;;;;;;;;;;;26.52;33.81;99959.69;4974485;28;19929;-69
2022/07/12 12:18:41;;;;;;;;;;;;;;;26.68;33.02;99956.13;4974478;28;20038;-69
2022/07/12 12:21:12;;;;;;;;;;;;;;;26.83;33.75;99949.94;4974385;28;19922;-67
2022/07/12 12:23:42;;;;;;;;;;;;;;;26.93;32.88;99951.91;4955649;29;19977;-68
2022/07/12 12:26:15;;;;;;;;;;;;;;;27.09;32.16;99946.53;4956012;29;19922;-66
2022/07/12 12:28:44;;;;;;;;;;;;;;;27.34;32.66;99951.84;4958792;28;19922;-70
2022/07/12 12:31:13;;;;;;;;;;;;;;;27.31;31.93;99951.22;4974319;28;19926;-67
2022/07/12 12:33:42;;;;;;;;;;;;;;;27.20;31.43;99944.03;4974231;28;19976;-69
2022/07/12 12:36:20;;;;;;;;;;;;;;;26.97;31.28;99948.13;4975058;28;20054;-70
2022/07/12 12:38:50;;;;;;;;;;;;;;;26.89;32.13;99941.72;4974976;28;19965;-68
2022/07/12 12:41:22;;;;;;;;;;;;;;;26.91;32.66;99942.44;4972491;28;20360;-68
2022/07/12 12:43:58;;;;;;;;;;;;;;;26.63;32.95;99942.47;4972907;28;19926;-66
2022/07/12 12:46:37;;;;;;;;;;;;;;;26.23;33.15;99944.91;4971954;28;19968;-67
2022/07/12 12:49:06;;;;;;;;;;;;;;;26.12;33.07;99960.44;4974235;28;19922;-67
2022/07/12 12:51:51;;;;;;;;;;;;;;;26.00;33.16;99953.28;4974998;28;19977;-68
2022/07/12 12:54:31;;;;;;;;;;;;;;;25.95;33.34;99945.72;4977521;28;19922;-67
2022/07/12 12:56:59;;;;;;;;;;;;;;;25.98;32.96;99949.91;4977091;28;19929;-67
2022/07/12 12:59:28;;;;;;;;;;;;;;;26.12;33.21;99957.81;4977278;28;19930;-69